Time;durP1;ratioP1;P1;durP2;ratioP2;P2;SDS_P1;SDS_P2;PMS_P1;PMS_P2;Temp;Humidity;BMP_temperature;BMP_pressure;BME280_temperature;BME280_humidity;BME280_pressure;Samples;Min_cycle;Max_cycle;Signal;HPM_P1;HPM_P2
2021/05/04 00:02:04;;;;;;;54.30;34.93;;;;;;;2.41;72.40;99129.09;124888;1096;64339;-86
2021/05/04 00:04:31;;;;;;;46.17;32.77;;;;;;;2.39;72.43;99127.42;124877;1101;64380;-86
2021/05/04 00:06:57;;;;;;;49.27;32.67;;;;;;;2.36;72.45;99127.52;124890;1102;64365;-85
2021/05/04 00:09:24;;;;;;;48.07;31.63;;;;;;;2.31;72.37;99119.77;124954;1101;64413;-86
2021/05/04 00:11:53;;;;;;;49.13;33.03;;;;;;;2.29;72.72;99120.72;124829;1097;64642;-85
2021/05/04 00:14:20;;;;;;;43.00;31.30;;;;;;;2.26;72.59;99123.45;124915;1096;64322;-85
2021/05/04 00:16:47;;;;;;;41.60;29.30;;;;;;;2.24;72.84;99115.63;124856;1097;64298;-85
2021/05/04 00:19:14;;;;;;;35.73;26.30;;;;;;;2.25;72.87;99121.75;124893;1101;64778;-86
2021/05/04 00:21:41;;;;;;;37.93;26.30;;;;;;;2.26;72.96;99120.83;124900;1101;64429;-86
2021/05/04 00:24:08;;;;;;;38.30;29.10;;;;;;;2.28;72.75;99122.50;124915;1096;64403;-86
2021/05/04 00:26:35;;;;;;;46.30;32.73;;;;;;;2.29;73.09;99118.09;124864;1097;64413;-86
2021/05/04 00:29:02;;;;;;;45.93;33.00;;;;;;;2.28;73.39;99111.98;124907;1097;64407;-86
2021/05/04 00:31:29;;;;;;;48.23;34.20;;;;;;;2.24;73.43;99107.75;124867;1097;64724;-87
2021/05/04 00:33:56;;;;;;;44.37;34.43;;;;;;;2.18;73.44;99113.17;124883;1101;64489;-86
2021/05/04 00:36:23;;;;;;;48.23;35.70;;;;;;;2.11;73.14;99119.55;124854;1101;64314;-86
2021/05/04 00:38:50;;;;;;;51.17;37.13;;;;;;;2.04;73.43;99110.97;124894;1101;64333;-85
2021/05/04 00:41:17;;;;;;;46.10;34.10;;;;;;;1.97;73.50;99105.06;124856;1101;64266;-86
2021/05/04 00:43:44;;;;;;;47.30;33.63;;;;;;;1.94;73.53;99113.02;124849;1101;64330;-86
2021/05/04 00:46:11;;;;;;;42.70;31.10;;;;;;;1.96;73.87;99111.20;124925;1101;64313;-86
2021/05/04 00:48:37;;;;;;;47.17;33.37;;;;;;;1.96;73.96;99107.72;124873;1096;64326;-86
2021/05/04 00:51:04;;;;;;;47.63;34.60;;;;;;;1.91;73.99;99107.85;124879;1101;64269;-85
2021/05/04 00:53:32;;;;;;;48.33;36.97;;;;;;;1.87;74.13;99100.98;124884;1101;64303;-85
2021/05/04 00:56:00;;;;;;;48.37;35.07;;;;;;;1.82;73.90;99102.00;124890;1101;64428;-86
2021/05/04 00:58:28;;;;;;;49.30;37.20;;;;;;;1.74;74.34;99104.88;125013;1096;64339;-85
2021/05/04 01:00:56;;;;;;;53.50;39.23;;;;;;;1.69;74.13;99105.02;124952;1101;64358;-87
2021/05/04 01:03:22;;;;;;;51.23;38.60;;;;;;;1.63;74.37;99105.16;124901;1101;64342;-87
2021/05/04 01:05:49;;;;;;;43.70;34.60;;;;;;;1.57;74.44;99099.25;124882;1096;64278;-87
2021/05/04 01:08:16;;;;;;;45.33;34.23;;;;;;;1.52;74.59;99100.22;124909;1096;64358;-87
2021/05/04 01:10:43;;;;;;;42.07;31.80;;;;;;;1.49;74.81;99094.21;124930;1101;64409;-85
2021/05/04 01:13:10;;;;;;;47.50;33.73;;;;;;;1.50;74.91;99102.06;124882;1101;64361;-86
2021/05/04 01:15:37;;;;;;;52.30;38.13;;;;;;;1.45;74.93;99103.95;124927;1096;64329;-86
2021/05/04 01:18:04;;;;;;;50.50;36.60;;;;;;;1.40;74.93;99102.36;124867;1101;64425;-85
2021/05/04 01:20:31;;;;;;;52.47;37.57;;;;;;;1.33;75.13;99093.78;124908;1096;64297;-85
2021/05/04 01:22:58;;;;;;;50.33;38.47;;;;;;;1.28;75.10;99096.52;124865;1101;64416;-85
2021/05/04 01:25:24;;;;;;;47.00;37.13;;;;;;;1.26;75.20;99089.59;124855;1095;64334;-86
2021/05/04 01:27:51;;;;;;;46.33;35.53;;;;;;;1.21;75.17;99092.38;124874;1096;64361;-86
2021/05/04 01:30:18;;;;;;;46.30;35.80;;;;;;;1.22;75.65;99082.73;124878;1101;64326;-86
2021/05/04 01:32:45;;;;;;;50.87;35.23;;;;;;;1.30;75.73;99078.13;124847;1096;64326;-86
2021/05/04 01:35:12;;;;;;;48.63;37.67;;;;;;;1.39;75.84;99077.84;124831;1101;64351;-86
2021/05/04 01:37:40;;;;;;;52.20;37.33;;;;;;;1.40;75.61;99081.36;124889;1094;64401;-86
2021/05/04 01:40:07;;;;;;;50.57;37.83;;;;;;;1.38;75.46;99081.39;124893;1101;64332;-86
2021/05/04 01:42:35;;;;;;;47.50;36.87;;;;;;;1.27;75.03;99076.44;124871;1096;64843;-86
2021/05/04 01:45:03;;;;;;;50.40;37.17;;;;;;;1.16;75.27;99068.02;124992;1096;64329;-86
2021/05/04 01:47:30;;;;;;;45.83;35.10;;;;;;;1.11;75.59;99075.15;124873;1097;64435;-85
2021/05/04 01:49:56;;;;;;;50.33;35.13;;;;;;;1.04;75.60;99068.34;124921;1101;64486;-86
2021/05/04 01:52:23;;;;;;;45.23;35.77;;;;;;;1.01;75.65;99065.80;124918;1101;64281;-85
2021/05/04 01:54:50;;;;;;;47.37;36.87;;;;;;;0.97;75.65;99069.39;124962;1101;64307;-86
2021/05/04 01:57:17;;;;;;;46.70;35.80;;;;;;;0.90;75.72;99065.23;124884;1101;64275;-86
2021/05/04 01:59:44;;;;;;;51.47;37.77;;;;;;;0.86;76.11;99060.05;124856;1095;64333;-86
2021/05/04 02:02:10;;;;;;;49.97;37.17;;;;;;;0.84;76.05;99061.88;124962;1101;64431;-86
2021/05/04 02:04:37;;;;;;;50.87;39.43;;;;;;;0.79;76.02;99066.38;125057;1097;64336;-86
2021/05/04 02:07:04;;;;;;;47.53;35.87;;;;;;;0.75;75.99;99063.86;125304;1101;64255;-85
2021/05/04 02:09:32;;;;;;;48.50;35.83;;;;;;;0.73;76.36;99063.04;126350;1096;64305;-85
2021/05/04 02:11:59;;;;;;;44.73;34.13;;;;;;;0.72;76.21;99067.43;125272;1095;64355;-87
2021/05/04 02:14:26;;;;;;;50.43;39.50;;;;;;;0.71;76.22;99067.45;126701;1101;64233;-84
2021/05/04 02:16:53;;;;;;;53.63;38.50;;;;;;;0.71;76.40;99060.47;126472;1101;64252;-85
2021/05/04 02:19:20;;;;;;;56.43;42.10;;;;;;;0.75;76.85;99056.85;124931;1101;64387;-87
2021/05/04 02:21:47;;;;;;;50.23;38.60;;;;;;;0.77;76.61;99057.68;124900;1096;64255;-89
2021/05/04 02:24:14;;;;;;;56.05;40.35;;;;;;;0.76;76.48;99057.70;124915;1097;64269;-85
2021/05/04 02:26:40;;;;;;;46.93;34.57;;;;;;;0.72;76.70;99063.95;124943;1097;64320;-86
2021/05/04 02:29:07;;;;;;;46.93;35.47;;;;;;;0.70;76.61;99053.48;124959;1101;64275;-85
2021/05/04 02:31:34;;;;;;;49.77;38.70;;;;;;;0.69;76.90;99051.78;124919;1101;64425;-85
2021/05/04 02:34:01;;;;;;;49.10;37.63;;;;;;;0.68;76.72;99047.41;124864;1102;64420;-86
2021/05/04 02:36:27;;;;;;;49.37;39.07;;;;;;;0.70;76.88;99047.38;124871;1101;64378;-85
2021/05/04 02:38:54;;;;;;;52.37;39.47;;;;;;;0.64;76.57;99043.17;124951;1101;64256;-88
2021/05/04 02:41:21;;;;;;;51.50;39.97;;;;;;;0.57;76.64;99038.97;124915;1101;64278;-85
2021/05/04 02:43:47;;;;;;;49.20;36.87;;;;;;;0.50;76.56;99037.40;124841;1101;64339;-85
2021/05/04 02:46:14;;;;;;;44.03;36.07;;;;;;;0.46;76.49;99039.25;124889;1101;64329;-86
2021/05/04 02:48:43;;;;;;;48.00;36.03;;;;;;;0.41;76.71;99039.35;124854;1101;64339;-86
2021/05/04 02:51:11;;;;;;;51.20;37.97;;;;;;;0.38;76.85;99035.96;124918;1096;64348;-86
2021/05/04 02:53:39;;;;;;;49.23;38.17;;;;;;;0.36;76.51;99029.89;124891;1101;64301;-86
2021/05/04 02:56:07;;;;;;;54.60;39.20;;;;;;;0.34;76.82;99016.84;124897;1101;64336;-86
2021/05/04 02:58:35;;;;;;;53.60;41.47;;;;;;;0.33;76.84;99020.34;124926;1101;64246;-85
2021/05/04 03:01:03;;;;;;;50.17;38.30;;;;;;;0.31;76.99;99021.27;124881;1101;64577;-86
2021/05/04 03:03:30;;;;;;;46.60;36.43;;;;;;;0.28;76.94;99011.73;124969;1097;64425;-85
2021/05/04 03:05:56;;;;;;;50.67;37.70;;;;;;;0.29;76.84;99015.20;124951;1096;64362;-86
2021/05/04 03:08:24;;;;;;;50.25;36.90;;;;;;;0.28;76.95;99008.25;124742;1101;64345;-85
2021/05/04 03:10:52;;;;;;;52.60;39.60;;;;;;;0.27;77.04;99004.78;124944;1101;64329;-86
2021/05/04 03:13:26;;;;;;;51.87;40.07;;;;;;;0.27;77.15;99001.30;124824;1101;64496;-85
2021/05/04 03:15:53;;;;;;;51.63;39.47;;;;;;;0.25;77.08;98995.23;124919;1096;64393;-85
2021/05/04 03:18:20;;;;;;;52.87;39.93;;;;;;;0.24;77.13;98990.87;124864;1102;64422;-86
2021/05/04 03:20:52;;;;;;;48.07;37.40;;;;;;;0.23;76.99;98987.39;124868;1101;64330;-86
2021/05/04 03:23:20;;;;;;;48.67;38.80;;;;;;;0.26;77.37;98989.93;124931;1097;64323;-86
2021/05/04 03:25:47;;;;;;;49.27;40.57;;;;;;;0.32;77.20;98987.17;124896;1101;64425;-86
2021/05/04 03:28:15;;;;;;;52.93;41.67;;;;;;;0.35;77.69;98981.00;124902;1101;64416;-86
2021/05/04 03:30:42;;;;;;;54.40;41.65;;;;;;;0.39;77.29;98980.00;124919;1101;64339;-86
2021/05/04 03:33:09;;;;;;;52.03;41.93;;;;;;;0.42;77.43;98979.91;124904;1097;64336;-86
2021/05/04 03:35:36;;;;;;;49.07;37.97;;;;;;;0.48;77.38;98981.54;124915;1096;64375;-85
2021/05/04 03:38:03;;;;;;;49.30;38.55;;;;;;;0.57;77.42;98976.89;124920;1096;64496;-86
2021/05/04 03:40:31;;;;;;;47.83;40.13;;;;;;;0.95;77.32;98981.98;124866;1097;64339;-86
2021/05/04 03:43:01;;;;;;;52.50;43.77;;;;;;;1.96;76.26;98966.66;124825;1096;64307;-85
2021/05/04 03:45:29;;;;;;;48.70;41.27;;;;;;;2.88;74.95;98964.42;124943;1101;64332;-87
2021/05/04 03:47:56;;;;;;;49.23;41.57;;;;;;;3.60;73.80;98959.91;124929;1101;64332;-86
2021/05/04 03:50:26;;;;;;;50.20;39.07;;;;;;;4.12;73.07;98951.70;124892;1101;64252;-86
2021/05/04 03:52:55;;;;;;;44.75;37.95;;;;;;;4.65;72.15;98955.63;124864;1101;64473;-86
2021/05/04 03:55:22;;;;;;;43.87;37.50;;;;;;;4.96;71.29;98948.06;125001;1101;64309;-86
2021/05/04 03:57:48;;;;;;;40.60;36.20;;;;;;;5.16;70.68;98947.17;124892;1095;64329;-86
2021/05/04 04:00:16;;;;;;;41.50;35.80;;;;;;;5.37;70.49;98939.16;124920;1097;64326;-86
2021/05/04 04:02:43;;;;;;;44.60;38.67;;;;;;;5.76;69.81;98936.41;124952;1101;64556;-85
2021/05/04 04:05:11;;;;;;;44.20;37.25;;;;;;;6.22;68.88;98943.94;124895;1096;64335;-84
2021/05/04 04:07:38;;;;;;;43.53;36.33;;;;;;;6.49;68.16;98942.53;124904;1101;64240;-85
2021/05/04 04:10:07;;;;;;;44.93;37.00;;;;;;;6.81;67.90;98940.00;124897;1101;64304;-86
2021/05/04 04:12:34;;;;;;;39.57;33.70;;;;;;;7.21;67.13;98938.75;125019;1101;64390;-85
2021/05/04 04:15:01;;;;;;;37.10;33.15;;;;;;;7.60;66.50;98939.28;124860;1097;64256;-86
2021/05/04 04:17:27;;;;;;;34.87;31.33;;;;;;;8.04;65.86;98930.61;124908;1096;64243;-86
2021/05/04 04:19:54;;;;;;;35.53;31.83;;;;;;;8.32;65.17;98936.03;124927;1101;64674;-87
2021/05/04 04:22:21;;;;;;;33.25;29.30;;;;;;;8.43;64.66;98927.47;124926;1101;64444;-86
2021/05/04 04:24:48;;;;;;;33.37;29.57;;;;;;;8.53;64.26;98923.32;124973;1096;64361;-85
2021/05/04 04:27:14;;;;;;;32.07;28.67;;;;;;;8.72;63.64;98923.06;124950;1096;64326;-86
2021/05/04 04:29:41;;;;;;;31.60;28.17;;;;;;;8.89;63.46;98913.20;124880;1101;64418;-84
2021/05/04 04:32:08;;;;;;;31.77;28.37;;;;;;;9.07;62.95;98911.22;124857;1097;64371;-86
2021/05/04 04:34:34;;;;;;;30.63;27.33;;;;;;;9.31;62.55;98914.14;124858;1097;64703;-86
2021/05/04 04:37:01;;;;;;;28.85;25.85;;;;;;;9.75;62.02;98902.47;124960;1096;64428;-86
2021/05/04 04:39:28;;;;;;;31.13;26.93;;;;;;;10.00;61.59;98902.55;124857;1101;64320;-87
2021/05/04 04:41:54;;;;;;;31.25;28.05;;;;;;;10.34;60.66;98900.33;124881;1101;64416;-86
2021/05/04 04:44:21;;;;;;;29.73;26.73;;;;;;;10.55;60.09;98901.53;124861;1101;64333;-86
2021/05/04 04:46:48;;;;;;;29.20;26.10;;;;;;;10.76;59.66;98895.69;124887;1101;64429;-86
2021/05/04 04:49:17;;;;;;;31.60;28.40;;;;;;;11.04;59.49;98891.96;125039;1095;64741;-87
2021/05/04 04:51:46;;;;;;;31.58;28.23;;;;;;;11.43;58.63;98893.60;125123;1101;64440;-87
2021/05/04 04:54:14;;;;;;;29.13;26.23;;;;;;;11.74;57.96;98893.17;125535;1096;64384;-84
2021/05/04 04:56:41;;;;;;;26.50;23.83;;;;;;;11.94;57.38;98886.41;125989;1101;64339;-85
2021/05/04 04:59:08;;;;;;;22.57;20.27;;;;;;;12.21;56.74;98886.16;125056;1101;64243;-91
2021/05/04 05:01:36;;;;;;;20.83;18.77;;;;;;;12.65;57.06;98879.24;126359;1101;63320;-84
2021/05/04 05:04:04;;;;;;;20.17;16.77;;;;;;;13.14;56.39;98873.58;125877;1096;64380;-85
2021/05/04 05:06:32;;;;;;;13.43;12.13;;;;;;;13.69;55.65;98862.95;124964;1101;64393;-86
2021/05/04 05:09:00;;;;;;;10.23;8.83;;;;;;;14.31;54.86;98860.52;124910;1095;64326;-87
2021/05/04 05:11:28;;;;;;;6.47;5.73;;;;;;;14.27;55.05;98860.78;124940;1101;64296;-85
2021/05/04 05:13:54;;;;;;;3.57;3.23;;;;;;;14.00;55.60;98858.57;124870;1096;64327;-85
2021/05/04 05:16:22;;;;;;;3.20;2.90;;;;;;;13.66;55.19;98849.80;124849;1101;64466;-85
2021/05/04 05:18:51;;;;;;;2.73;2.50;;;;;;;13.31;55.25;98858.02;124919;1101;64550;-85
2021/05/04 05:21:19;;;;;;;3.77;3.20;;;;;;;12.99;55.07;98856.06;124890;1096;64265;-85
2021/05/04 05:23:46;;;;;;;3.73;2.40;;;;;;;12.68;55.05;98854.94;124971;1097;64338;-85
2021/05/04 05:26:15;;;;;;;3.33;2.67;;;;;;;12.34;54.86;98864.70;124926;1097;64339;-85
2021/05/04 05:28:42;;;;;;;3.50;2.93;;;;;;;12.06;54.45;98859.64;125056;1096;64474;-86
2021/05/04 05:31:09;;;;;;;3.45;2.85;;;;;;;12.40;53.93;98864.23;125035;1096;64454;-86
2021/05/04 05:33:36;;;;;;;3.30;2.87;;;;;;;12.88;52.93;98856.91;125022;1097;64422;-85
2021/05/04 05:36:03;;;;;;;5.03;3.40;;;;;;;13.49;52.25;98850.34;124816;1101;64396;-86
2021/05/04 05:38:29;;;;;;;4.50;2.63;;;;;;;14.11;52.14;98844.27;125013;1096;64259;-85
2021/05/04 05:40:56;;;;;;;3.37;2.80;;;;;;;14.48;51.61;98844.71;125093;1101;64422;-85
2021/05/04 05:43:24;;;;;;;2.80;2.40;;;;;;;14.46;51.85;98840.45;125090;1096;64247;-85
2021/05/04 05:45:51;;;;;;;3.97;2.70;;;;;;;14.17;51.66;98840.25;125086;1096;64440;-85
2021/05/04 05:48:18;;;;;;;5.03;3.00;;;;;;;13.84;51.68;98834.03;125146;1096;64325;-85
2021/05/04 05:50:44;;;;;;;2.55;2.20;;;;;;;13.45;51.46;98828.30;125141;1101;64300;-85
2021/05/04 05:53:11;;;;;;;3.77;2.40;;;;;;;13.27;51.58;98822.64;125186;1101;64338;-85
2021/05/04 05:55:38;;;;;;;4.00;2.55;;;;;;;13.25;50.98;98816.52;125222;1101;64496;-83
2021/05/04 05:58:05;;;;;;;3.67;2.40;;;;;;;13.52;51.09;98815.28;125180;1101;64275;-84
2021/05/04 06:00:31;;;;;;;3.03;2.10;;;;;;;13.61;50.91;98809.15;125038;1102;64497;-85
2021/05/04 06:03:02;;;;;;;2.63;2.00;;;;;;;13.35;51.01;98806.80;125240;1096;64349;-84
2021/05/04 06:05:30;;;;;;;2.60;2.23;;;;;;;13.16;51.11;98810.09;125157;1101;64429;-85
2021/05/04 06:07:58;;;;;;;3.33;2.50;;;;;;;13.03;50.97;98806.67;125224;1101;64345;-85
2021/05/04 06:10:25;;;;;;;2.60;2.40;;;;;;;13.54;50.40;98792.76;125166;1101;64336;-85
2021/05/04 06:13:06;;;;;;;3.57;2.87;;;;;;;14.18;49.71;98777.62;125209;1096;64339;-85
2021/05/04 06:15:35;;;;;;;3.55;2.90;;;;;;;14.80;49.24;98778.57;125094;1101;64267;-86
2021/05/04 06:18:03;;;;;;;4.95;3.60;;;;;;;15.33;48.28;98778.31;125128;1101;64278;-86
2021/05/04 06:20:29;;;;;;;3.50;3.20;;;;;;;15.69;48.08;98775.97;125201;1101;64434;-87
2021/05/04 06:22:56;;;;;;;4.60;3.33;;;;;;;15.94;47.35;98770.03;125106;1101;64314;-91
2021/05/04 06:25:23;;;;;;;4.07;3.50;;;;;;;16.30;47.27;98750.59;125074;1101;64336;-86
2021/05/04 06:27:51;;;;;;;4.37;3.20;;;;;;;16.68;46.54;98752.33;125099;1101;64262;-86
2021/05/04 06:30:18;;;;;;;4.07;3.30;;;;;;;16.94;46.05;98740.92;124997;1096;64381;-85
2021/05/04 06:32:47;;;;;;;4.15;3.25;;;;;;;17.11;45.52;98745.49;125022;1101;64490;-86
2021/05/04 06:35:19;;;;;;;2.03;1.80;;;;;;;17.10;44.60;98733.88;124957;1101;64361;-85
2021/05/04 06:37:47;;;;;;;3.03;2.13;;;;;;;17.19;44.57;98729.42;125055;1096;64881;-85
2021/05/04 06:40:15;;;;;;;3.07;2.10;;;;;;;17.24;43.85;98721.73;124943;1097;64428;-85
2021/05/04 06:42:42;;;;;;;3.00;2.03;;;;;;;17.07;43.36;98723.41;124942;1101;64457;-84
2021/05/04 06:45:09;;;;;;;3.70;2.50;;;;;;;16.89;43.28;98723.36;125032;1101;64833;-84
2021/05/04 06:47:36;;;;;;;3.85;2.30;;;;;;;16.94;43.04;98717.54;124715;1096;64336;-86
2021/05/04 06:50:04;;;;;;;3.83;2.30;;;;;;;16.86;42.97;98709.38;125030;1101;64348;-86
2021/05/04 06:52:30;;;;;;;2.80;2.00;;;;;;;16.95;43.27;98713.84;125009;1101;64406;-84
2021/05/04 06:54:57;;;;;;;4.30;2.20;;;;;;;17.01;42.79;98707.00;124959;1101;64396;-84
2021/05/04 06:57:24;;;;;;;3.93;2.07;;;;;;;16.95;42.61;98704.92;124945;1101;64332;-85
2021/05/04 06:59:51;;;;;;;4.40;3.00;;;;;;;16.88;42.81;98704.69;124884;1097;64310;-86
2021/05/04 07:02:19;;;;;;;3.47;2.67;;;;;;;16.68;43.08;98695.82;124882;1101;64400;-86
2021/05/04 07:04:46;;;;;;;10.47;3.93;;;;;;;16.44;43.46;98696.34;124874;1101;64387;-86
2021/05/04 07:07:12;;;;;;;5.50;3.40;;;;;;;16.31;43.27;98680.54;125027;1101;64266;-86
2021/05/04 07:09:39;;;;;;;4.00;2.40;;;;;;;16.45;43.28;98684.59;124918;1101;64773;-86
2021/05/04 07:12:06;;;;;;;3.30;3.00;;;;;;;16.58;43.28;98670.80;124939;1097;64415;-85
2021/05/04 07:14:33;;;;;;;6.30;4.10;;;;;;;16.59;42.62;98676.05;124969;1101;64419;-86
2021/05/04 07:17:00;;;;;;;9.03;4.73;;;;;;;16.72;42.67;98666.76;124964;1101;64275;-85
2021/05/04 07:19:28;;;;;;;7.67;4.40;;;;;;;16.73;42.56;98657.71;125012;1096;64326;-86
2021/05/04 07:21:55;;;;;;;6.77;3.60;;;;;;;16.65;42.81;98661.98;125038;1101;64342;-85
2021/05/04 07:24:23;;;;;;;3.10;2.63;;;;;;;16.49;42.68;98653.72;124890;1097;64324;-86
2021/05/04 07:26:50;;;;;;;7.23;3.23;;;;;;;16.35;43.04;98651.50;124895;1101;64249;-85
2021/05/04 07:29:17;;;;;;;3.23;2.30;;;;;;;16.11;43.51;98649.32;125117;1101;64326;-85
2021/05/04 07:31:44;;;;;;;4.00;3.00;;;;;;;15.89;42.73;98653.21;124966;1096;64272;-86
2021/05/04 07:34:11;;;;;;;4.35;2.75;;;;;;;15.77;43.11;98655.20;124988;1101;64460;-86
2021/05/04 07:36:38;;;;;;;4.13;3.30;;;;;;;15.85;41.61;98643.73;124943;1101;64262;-86
2021/05/04 07:39:05;;;;;;;16.33;4.43;;;;;;;16.03;42.69;98639.30;124895;1101;64298;-87
2021/05/04 07:41:32;;;;;;;4.60;3.20;;;;;;;16.29;41.68;98628.73;125773;1101;64393;-84
2021/05/04 07:43:59;;;;;;;4.77;3.40;;;;;;;16.30;41.96;98626.89;126556;1101;64263;-86
2021/05/04 07:46:26;;;;;;;4.50;3.60;;;;;;;16.34;41.77;98621.08;124985;1097;64323;-85
2021/05/04 07:48:54;;;;;;;4.77;3.50;;;;;;;16.37;41.02;98611.86;126613;1101;64262;-86
2021/05/04 07:51:21;;;;;;;5.00;3.27;;;;;;;16.39;42.21;98615.26;126240;1096;64320;-86
2021/05/04 07:53:49;;;;;;;3.45;3.15;;;;;;;16.56;41.94;98613.60;124979;1096;64327;-86
2021/05/04 07:56:16;;;;;;;5.60;3.37;;;;;;;16.65;41.08;98608.17;125040;1095;64331;-86
2021/05/04 07:58:42;;;;;;;4.57;3.23;;;;;;;16.64;41.14;98603.80;124938;1101;64496;-86
2021/05/04 08:01:09;;;;;;;5.05;3.80;;;;;;;16.58;40.59;98607.08;124962;1101;64339;-84
2021/05/04 08:03:36;;;;;;;4.70;3.90;;;;;;;16.55;40.79;98601.16;125112;1096;64269;-84
2021/05/04 08:06:04;;;;;;;3.60;3.30;;;;;;;16.56;41.45;98601.02;125081;1096;64332;-86
2021/05/04 08:08:31;;;;;;;4.70;3.57;;;;;;;16.55;40.91;98593.92;125079;1101;64332;-87
2021/05/04 08:10:57;;;;;;;3.97;3.57;;;;;;;16.56;40.75;98598.33;125190;1101;64480;-86
2021/05/04 08:13:24;;;;;;;4.37;3.30;;;;;;;16.56;40.64;98587.57;125064;1096;64326;-85
2021/05/04 08:15:52;;;;;;;3.23;2.93;;;;;;;16.57;41.05;98585.72;125238;1102;64325;-86
2021/05/04 08:18:19;;;;;;;4.50;2.70;;;;;;;16.59;39.92;98571.13;125155;1101;64342;-84
2021/05/04 08:20:53;;;;;;;2.97;2.53;;;;;;;16.62;41.02;98578.89;125130;1101;64365;-85
2021/05/04 08:23:25;;;;;;;2.70;2.50;;;;;;;16.80;41.33;98578.95;125311;1101;64454;-85
2021/05/04 08:25:53;;;;;;;2.50;2.30;;;;;;;16.88;40.20;98564.73;125359;1096;64355;-85
2021/05/04 08:28:20;;;;;;;6.10;3.20;;;;;;;16.93;41.18;98566.94;125590;1101;64412;-85
2021/05/04 08:30:50;;;;;;;2.97;2.43;;;;;;;16.92;40.01;98566.09;125693;1101;64355;-83
2021/05/04 08:33:18;;;;;;;4.00;3.25;;;;;;;16.78;39.66;98561.26;125425;1101;64303;-86
2021/05/04 08:35:45;;;;;;;3.37;2.63;;;;;;;16.72;39.83;98567.20;125480;1101;64399;-85
2021/05/04 08:38:13;;;;;;;3.43;2.73;;;;;;;16.73;39.70;98560.84;125417;1096;64323;-86
2021/05/04 08:40:41;;;;;;;3.73;3.33;;;;;;;16.62;39.76;98567.28;125333;1101;64330;-85
2021/05/04 08:43:08;;;;;;;4.33;3.50;;;;;;;16.64;39.56;98547.30;125326;1101;64304;-86
2021/05/04 08:45:35;;;;;;;3.13;2.83;;;;;;;16.60;38.90;98548.59;125182;1101;64370;-85
2021/05/04 08:48:03;;;;;;;2.40;2.20;;;;;;;16.69;39.72;98552.20;125184;1097;64783;-85
2021/05/04 08:50:34;;;;;;;2.93;2.50;;;;;;;16.81;39.70;98540.26;125241;1101;64461;-86
2021/05/04 08:53:02;;;;;;;3.27;2.90;;;;;;;16.94;40.65;98545.27;125287;1097;64307;-85
2021/05/04 08:55:29;;;;;;;3.50;2.80;;;;;;;17.12;39.60;98526.41;125216;1101;64333;-85
2021/05/04 08:57:55;;;;;;;2.83;2.53;;;;;;;17.10;40.27;98534.63;125140;1096;64352;-84
2021/05/04 09:00:22;;;;;;;3.33;3.03;;;;;;;17.05;38.99;98528.02;125416;1101;64418;-84
2021/05/04 09:03:09;;;;;;;3.00;2.70;;;;;;;17.06;39.02;98525.19;125357;1100;64275;-84
2021/05/04 09:05:53;;;;;;;3.57;2.37;;;;;;;17.18;38.96;98519.55;125149;1101;64334;-86
2021/05/04 09:14:27;;;;;;;3.87;2.57;;;;;;;17.29;37.71;98503.97;124940;1101;64421;-86
2021/05/04 09:17:17;;;;;;;3.03;2.63;;;;;;;17.49;38.43;98495.70;124970;1096;64320;-85
2021/05/04 09:23:04;;;;;;;3.53;2.63;;;;;;;18.09;39.27;98482.22;124981;1101;64323;-83
2021/05/04 09:25:34;;;;;;;3.87;2.40;;;;;;;18.29;38.73;98474.67;124829;1095;64355;-84
2021/05/04 09:28:12;;;;;;;3.15;2.60;;;;;;;18.48;38.60;98470.83;125045;1096;64386;-86
2021/05/04 09:30:39;;;;;;;2.70;2.50;;;;;;;18.81;39.58;98458.27;125042;1096;64339;-83
2021/05/04 09:33:07;;;;;;;5.53;3.17;;;;;;;18.95;37.88;98450.50;124903;1101;64333;-85
2021/05/04 09:35:35;;;;;;;2.73;2.40;;;;;;;18.84;37.55;98446.28;125004;1101;64262;-84
2021/05/04 09:38:07;;;;;;;3.73;2.60;;;;;;;18.59;36.34;98442.71;124989;1097;64504;-84
2021/05/04 09:40:37;;;;;;;4.83;2.47;;;;;;;18.40;37.99;98446.54;125006;1097;64447;-85
2021/05/04 09:43:05;;;;;;;3.55;2.03;;;;;;;18.40;38.14;98442.02;125013;1101;64341;-85
2021/05/04 09:45:33;;;;;;;2.93;2.63;;;;;;;18.46;37.73;98431.53;124948;1097;65185;-85
2021/05/04 09:48:22;;;;;;;2.83;2.53;;;;;;;18.60;38.15;98426.33;124957;1101;64303;-84
2021/05/04 09:50:57;;;;;;;2.70;2.13;;;;;;;18.61;37.50;98422.61;124925;1101;64246;-86
2021/05/04 09:56:31;;;;;;;2.37;2.10;;;;;;;18.56;36.33;98418.73;125003;1101;64364;-85
2021/05/04 09:58:58;;;;;;;4.43;2.03;;;;;;;18.61;37.92;98400.18;124983;1096;64281;-84
2021/05/04 10:01:25;;;;;;;2.27;1.83;;;;;;;18.78;37.30;98398.38;124950;1101;64422;-85
2021/05/04 10:03:55;;;;;;;2.77;1.93;;;;;;;18.76;37.14;98390.43;124964;1102;64332;-85
2021/05/04 10:06:21;;;;;;;;;;;;;;;18.71;36.01;98394.63;125162;1101;64259;-85
2021/05/04 10:08:50;;;;;;;2.20;2.10;;;;;;;18.68;37.30;98385.01;125034;1097;64332;-85
2021/05/04 10:11:20;;;;;;;1.90;1.80;;;;;;;18.85;36.65;98364.26;124918;1101;64339;-85
2021/05/04 10:13:52;;;;;;;2.27;2.00;;;;;;;18.99;37.14;98368.14;124983;1097;64779;-85
2021/05/04 10:16:31;;;;;;;2.90;1.93;;;;;;;19.18;37.02;98367.75;124935;1097;64384;-85
2021/05/04 10:19:03;;;;;;;3.53;2.13;;;;;;;19.44;36.77;98366.66;125031;1096;64357;-86
2021/05/04 10:21:30;;;;;;;3.30;1.60;;;;;;;19.57;34.66;98358.00;124946;1101;64320;-86
2021/05/04 10:23:58;;;;;;;2.33;2.23;;;;;;;19.52;35.00;98350.41;125102;1096;64705;-85
2021/05/04 10:26:27;;;;;;;4.30;2.23;;;;;;;19.41;33.51;98354.34;125005;1097;64399;-85
2021/05/04 10:29:02;;;;;;;;;;;;;;;19.31;34.22;98348.30;126010;1101;64455;-85
2021/05/04 10:31:48;;;;;;;3.37;2.13;;;;;;;19.29;34.75;98353.03;126357;1101;64380;-90
2021/05/04 10:34:27;;;;;;;3.97;1.97;;;;;;;19.32;35.58;98341.03;125639;1101;64306;-84
2021/05/04 10:36:57;;;;;;;2.95;1.83;;;;;;;19.41;33.93;98338.13;125885;1101;64255;-84
2021/05/04 10:39:34;;;;;;;3.35;1.70;;;;;;;19.45;35.08;98331.34;126157;1101;64300;-85
2021/05/04 10:42:01;;;;;;;3.37;2.30;;;;;;;19.53;34.75;98317.78;124899;1101;64336;-90
2021/05/04 10:44:28;;;;;;;2.67;1.83;;;;;;;19.43;34.57;98319.02;125194;1101;64377;-88
2021/05/04 10:46:56;;;;;;;2.43;1.70;;;;;;;19.38;34.58;98324.11;125328;1096;64323;-87
2021/05/04 10:49:56;;;;;;;2.43;1.80;;;;;;;19.32;33.01;98322.95;125503;1101;64365;-82
2021/05/04 10:52:57;;;;;;;1.73;1.60;;;;;;;19.28;33.99;98327.04;125293;1096;64230;-83
2021/05/04 10:55:52;;;;;;;3.03;1.63;;;;;;;19.26;33.84;98308.29;124689;1102;64466;-78
2021/05/04 10:58:31;;;;;;;2.13;1.70;;;;;;;19.24;34.22;98304.08;124861;1101;64335;-78
2021/05/04 11:01:04;;;;;;;2.10;1.90;;;;;;;19.18;34.24;98302.08;124785;1101;64300;-83
2021/05/04 11:03:32;;;;;;;2.70;2.10;;;;;;;19.28;34.82;98289.22;125056;1101;64352;-82
2021/05/04 11:06:14;;;;;;;2.60;2.10;;;;;;;19.36;33.77;98277.53;124901;1096;64335;-82
2021/05/04 11:08:41;;;;;;;1.73;1.60;;;;;;;19.26;33.92;98275.88;124926;1101;64467;-81
2021/05/04 11:11:32;;;;;;;1.80;1.40;;;;;;;19.16;33.90;98272.53;124807;1097;64269;-80
2021/05/04 11:14:08;;;;;;;2.30;1.40;;;;;;;19.15;33.08;98260.06;124834;1097;64240;-79
2021/05/04 11:16:45;;;;;;;2.10;1.60;;;;;;;19.13;33.79;98253.98;124847;1096;64336;-80
2021/05/04 11:19:17;;;;;;;1.93;1.57;;;;;;;19.24;33.99;98258.98;124813;1096;64333;-80
2021/05/04 11:21:48;;;;;;;2.43;1.67;;;;;;;19.42;34.45;98266.01;124794;1101;64336;-79
2021/05/04 11:24:20;;;;;;;2.00;1.90;;;;;;;19.47;32.82;98267.16;124845;1096;64391;-79
2021/05/04 11:26:47;;;;;;;1.80;1.53;;;;;;;19.37;32.95;98257.59;124809;1101;64692;-79
2021/05/04 11:29:17;;;;;;;1.60;1.50;;;;;;;19.25;31.52;98263.39;124766;1096;64323;-80
2021/05/04 11:31:46;;;;;;;3.03;1.53;;;;;;;19.25;32.69;98252.59;124755;1096;64361;-80
2021/05/04 11:34:40;;;;;;;3.30;2.00;;;;;;;19.34;33.63;98253.38;124876;1096;64371;-79
2021/05/04 11:37:36;;;;;;;1.75;1.40;;;;;;;19.43;33.23;98246.06;124767;1101;64343;-79
2021/05/04 11:40:06;;;;;;;2.30;1.50;;;;;;;19.41;32.86;98248.95;124735;1101;64287;-80
2021/05/04 11:42:33;;;;;;;;;;;;;;;19.32;31.11;98241.06;124843;1101;64664;-78